Time;durP1;ratioP1;P1;durP2;ratioP2;P2;SDS_P1;SDS_P2;PMS_P1;PMS_P2;Temp;Humidity;BMP_temperature;BMP_pressure;BME280_temperature;BME280_humidity;BME280_pressure;Samples;Min_cycle;Max_cycle;Signal;HPM_P1;HPM_P2
2023/06/08 00:01:04;;;;;;;19.85;6.22;;;13.60;99.90;;;;;;5092549;28;20043;-56
2023/06/08 00:03:30;;;;;;;18.02;6.00;;;13.60;99.90;;;;;;5091527;28;20040;-56
2023/06/08 00:05:59;;;;;;;12.98;5.45;;;13.50;99.90;;;;;;5092647;28;20419;-57
2023/06/08 00:08:25;;;;;;;14.05;5.28;;;13.60;99.90;;;;;;5092276;28;20375;-56
2023/06/08 00:10:51;;;;;;;13.55;4.88;;;13.60;99.90;;;;;;5125204;27;20123;-57
2023/06/08 00:13:17;;;;;;;18.75;5.57;;;13.60;99.90;;;;;;5092527;28;20050;-57
2023/06/08 00:15:43;;;;;;;14.32;5.35;;;13.60;99.90;;;;;;5092057;28;20114;-57
2023/06/08 00:18:09;;;;;;;18.50;6.30;;;13.50;99.90;;;;;;5092377;28;20044;-57
2023/06/08 00:20:35;;;;;;;16.23;6.28;;;13.60;99.90;;;;;;5092574;28;20085;-57
2023/06/08 00:23:04;;;;;;;16.33;6.63;;;13.50;99.90;;;;;;5092384;28;20571;-56
2023/06/08 00:25:30;;;;;;;;;;;13.50;99.90;;;;;;5093101;28;20066;-58
2023/06/08 00:27:56;;;;;;;13.88;6.18;;;13.50;99.90;;;;;;5092384;28;19963;-56
2023/06/08 00:30:21;;;;;;;14.40;6.80;;;13.50;99.90;;;;;;5092632;28;20424;-57
2023/06/08 00:32:47;;;;;;;18.17;7.85;;;13.50;99.90;;;;;;5092201;28;20398;-58
2023/06/08 00:35:14;;;;;;;18.13;7.38;;;13.40;99.90;;;;;;5092148;28;20383;-56
2023/06/08 00:37:40;;;;;;;18.17;7.30;;;13.50;99.90;;;;;;5092105;28;20432;-58
2023/06/08 00:40:07;;;;;;;15.70;6.70;;;13.30;99.90;;;;;;5092803;28;20043;-56
2023/06/08 00:42:32;;;;;;;16.88;6.78;;;13.30;99.90;;;;;;5092763;28;20084;-57
2023/06/08 00:44:58;;;;;;;14.55;7.13;;;13.40;99.90;;;;;;5092629;28;20114;-57
2023/06/08 00:47:25;;;;;;;12.90;6.65;;;13.50;99.90;;;;;;5092401;28;20507;-56
2023/06/08 00:49:51;;;;;;;14.30;6.75;;;13.40;99.90;;;;;;5092833;28;20059;-57
2023/06/08 00:52:20;;;;;;;17.60;6.60;;;13.20;99.90;;;;;;5092515;28;20036;-56
2023/06/08 00:54:48;;;;;;;;;;;13.10;99.90;;;;;;5092794;28;20050;-57
2023/06/08 00:57:16;;;;;;;21.48;7.35;;;13.20;99.90;;;;;;5091909;28;19920;-56
2023/06/08 00:59:43;;;;;;;19.95;7.50;;;13.20;99.90;;;;;;5092315;28;20052;-57
2023/06/08 01:02:10;;;;;;;17.80;8.50;;;13.20;99.90;;;;;;5092213;28;20036;-56
2023/06/08 01:04:36;;;;;;;16.05;7.63;;;13.30;99.90;;;;;;5090971;28;20090;-56
2023/06/08 01:07:27;;;;;;;12.32;7.20;;;13.10;99.90;;;;;;5092017;28;21186;-56
2023/06/08 01:09:59;;;;;;;14.73;6.70;;;13.20;99.90;;;;;;5092227;28;20074;-57
2023/06/08 01:12:52;;;;;;;15.75;6.30;;;13.00;99.90;;;;;;5092306;28;20036;-57
2023/06/08 01:15:33;;;;;;;18.58;7.28;;;12.90;99.90;;;;;;5090414;28;20055;-57
2023/06/08 01:18:04;;;;;;;14.20;7.05;;;12.90;99.90;;;;;;5092149;28;20090;-57
2023/06/08 01:20:49;;;;;;;17.02;7.30;;;12.90;99.90;;;;;;5094694;28;20121;-57
2023/06/08 01:23:34;;;;;;;16.55;7.28;;;12.90;99.90;;;;;;5095592;28;20125;-57
2023/06/08 01:26:01;;;;;;;16.33;7.45;;;12.90;99.90;;;;;;5096072;28;20032;-57
2023/06/08 01:28:28;;;;;;;16.67;6.95;;;12.90;99.90;;;;;;5094480;28;20036;-57
2023/06/08 01:30:54;;;;;;;19.65;7.80;;;13.00;99.90;;;;;;5095678;28;20043;-57
2023/06/08 01:33:22;;;;;;;15.02;6.07;;;13.00;99.90;;;;;;5095795;28;20036;-57
2023/06/08 01:36:10;;;;;;;17.80;6.45;;;13.10;99.90;;;;;;5095661;28;20059;-56
2023/06/08 01:38:44;;;;;;;15.07;6.43;;;13.10;99.90;;;;;;5095486;28;20040;-57
2023/06/08 01:41:16;;;;;;;17.48;6.38;;;13.00;99.90;;;;;;5095994;28;20040;-58
2023/06/08 01:43:47;;;;;;;17.92;6.60;;;12.90;99.90;;;;;;5095865;28;20046;-56
2023/06/08 01:46:14;;;;;;;17.40;8.00;;;13.00;99.90;;;;;;5095379;28;20035;-58
2023/06/08 01:48:42;;;;;;;16.38;7.60;;;13.00;99.90;;;;;;5095415;28;20040;-56
2023/06/08 01:51:09;;;;;;;14.93;6.75;;;13.00;99.90;;;;;;5095572;28;20040;-57
2023/06/08 01:53:35;;;;;;;15.35;7.70;;;13.10;99.90;;;;;;5095324;28;20364;-57
2023/06/08 01:56:01;;;;;;;19.77;7.10;;;13.10;99.90;;;;;;5095214;28;20059;-57
2023/06/08 01:58:27;;;;;;;13.23;5.57;;;13.10;99.90;;;;;;5095242;28;20040;-58
2023/06/08 02:00:53;;;;;;;17.45;6.95;;;13.20;99.90;;;;;;5076657;28;20050;-56
2023/06/08 02:03:18;;;;;;;14.48;6.07;;;13.10;99.90;;;;;;5095212;28;20036;-57
2023/06/08 02:05:44;;;;;;;19.27;6.65;;;12.90;99.90;;;;;;5095044;28;20028;-57
2023/06/08 02:08:09;;;;;;;20.60;6.70;;;13.00;99.90;;;;;;5094898;28;20036;-56
2023/06/08 02:10:35;;;;;;;14.10;6.47;;;13.00;99.90;;;;;;5095167;28;20122;-56
2023/06/08 02:13:01;;;;;;;15.90;7.25;;;13.00;99.90;;;;;;5094774;28;20092;-56
2023/06/08 02:15:26;;;;;;;14.93;6.13;;;13.00;99.90;;;;;;5095128;28;20036;-57
2023/06/08 02:17:53;;;;;;;11.80;6.53;;;13.00;99.90;;;;;;5110168;28;20040;-57
2023/06/08 02:20:18;;;;;;;16.98;6.82;;;13.00;99.90;;;;;;5095038;28;20082;-57
2023/06/08 02:22:45;;;;;;;18.08;6.78;;;13.00;99.90;;;;;;5094682;28;20482;-58
2023/06/08 02:25:11;;;;;;;12.02;6.05;;;12.90;99.90;;;;;;5095251;28;20036;-57
2023/06/08 02:27:37;;;;;;;12.32;6.18;;;12.90;99.90;;;;;;5094949;28;20040;-56
2023/06/08 02:30:07;;;;;;;17.77;6.60;;;12.90;99.90;;;;;;5094104;28;20407;-58
2023/06/08 02:32:33;;;;;;;17.95;6.70;;;12.90;99.90;;;;;;5094968;28;20048;-58
2023/06/08 02:35:02;;;;;;;12.57;6.88;;;12.90;99.90;;;;;;5091342;28;20428;-56
2023/06/08 02:37:28;;;;;;;14.60;6.45;;;12.90;99.90;;;;;;5082036;28;20460;-56
2023/06/08 02:39:54;;;;;;;14.02;6.63;;;12.80;99.90;;;;;;5074064;28;20137;-57
2023/06/08 02:42:20;;;;;;;21.85;6.95;;;12.80;99.90;;;;;;5074172;28;20036;-57
2023/06/08 02:44:46;;;;;;;18.50;6.72;;;12.70;99.90;;;;;;5073892;28;20037;-57
2023/06/08 02:47:13;;;;;;;17.27;6.22;;;12.70;99.90;;;;;;5074497;28;20496;-57
2023/06/08 02:49:40;;;;;;;18.33;7.13;;;12.70;99.90;;;;;;5106783;28;20123;-58
2023/06/08 02:52:06;;;;;;;16.17;7.10;;;12.70;99.90;;;;;;5073983;28;20090;-58
2023/06/08 02:54:31;;;;;;;14.05;6.82;;;12.80;99.90;;;;;;5073060;28;20491;-56
2023/06/08 02:56:57;;;;;;;14.15;6.53;;;12.80;99.90;;;;;;5073209;28;20095;-56
2023/06/08 02:59:23;;;;;;;19.27;7.03;;;12.80;99.90;;;;;;5072191;28;20052;-56
2023/06/08 03:01:53;;;;;;;12.45;5.57;;;12.80;99.90;;;;;;5073043;28;20033;-56
2023/06/08 03:04:23;;;;;;;14.70;6.00;;;12.80;99.90;;;;;;5073148;28;20028;-56
2023/06/08 03:06:55;;;;;;;15.68;7.78;;;12.90;99.90;;;;;;5073104;28;20045;-56
2023/06/08 03:09:28;;;;;;;18.48;8.00;;;12.90;99.90;;;;;;5089774;28;20047;-55
2023/06/08 03:11:54;;;;;;;13.82;6.47;;;12.80;99.90;;;;;;5073205;28;20055;-56
2023/06/08 03:14:20;;;;;;;17.63;8.48;;;12.80;99.90;;;;;;5073276;28;20467;-56
2023/06/08 03:16:47;;;;;;;15.07;7.47;;;12.80;99.90;;;;;;5072856;28;20044;-56
2023/06/08 03:19:13;;;;;;;13.57;7.68;;;12.90;99.90;;;;;;5072818;28;20115;-56
2023/06/08 03:21:41;;;;;;;14.15;7.90;;;12.90;99.90;;;;;;5073144;28;20086;-56
2023/06/08 03:24:08;;;;;;;16.45;8.80;;;12.90;99.90;;;;;;5105543;28;20044;-57
2023/06/08 03:26:33;;;;;;;18.30;7.07;;;12.80;99.90;;;;;;5072682;28;20041;-57
2023/06/08 03:29:00;;;;;;;15.48;6.78;;;12.90;99.90;;;;;;5073008;28;20041;-57
2023/06/08 03:31:29;;;;;;;17.88;7.95;;;12.90;99.90;;;;;;5071270;28;20051;-57
2023/06/08 03:33:56;;;;;;;15.45;7.57;;;12.90;99.90;;;;;;5072671;28;20040;-57
2023/06/08 03:36:28;;;;;;;19.48;8.18;;;12.90;99.90;;;;;;5072417;28;20048;-57
2023/06/08 03:38:53;;;;;;;13.85;6.93;;;12.90;99.90;;;;;;5072518;28;20390;-56
2023/06/08 03:41:19;;;;;;;17.65;7.05;;;12.90;99.90;;;;;;5071843;28;20049;-56
2023/06/08 03:43:45;;;;;;;20.75;7.05;;;13.00;99.90;;;;;;5072153;28;20076;-56
2023/06/08 03:46:11;;;;;;;18.48;6.97;;;13.00;99.90;;;;;;5072519;28;20068;-57
2023/06/08 03:48:36;;;;;;;17.42;6.57;;;13.00;99.90;;;;;;5072303;28;20083;-56
2023/06/08 03:51:02;;;;;;;17.88;6.78;;;13.00;99.90;;;;;;5072750;28;20080;-56
2023/06/08 03:53:28;;;;;;;11.85;6.22;;;12.90;99.90;;;;;;5072663;28;20115;-56
2023/06/08 03:55:53;;;;;;;16.25;6.22;;;12.90;99.90;;;;;;5071802;28;20571;-56
2023/06/08 03:58:19;;;;;;;13.18;5.95;;;12.90;99.90;;;;;;5071142;28;20124;-55
2023/06/08 04:00:45;;;;;;;15.43;5.95;;;13.00;99.90;;;;;;5072021;28;20112;-56
2023/06/08 04:03:11;;;;;;;19.33;6.75;;;13.00;99.90;;;;;;5072013;28;20067;-56
2023/06/08 04:05:37;;;;;;;18.35;7.03;;;13.00;99.90;;;;;;5071751;28;20078;-57
2023/06/08 04:08:02;;;;;;;17.65;6.90;;;12.90;99.90;;;;;;5072301;28;20044;-58
2023/06/08 04:10:28;;;;;;;17.70;6.93;;;12.90;99.90;;;;;;5071876;28;20083;-57
2023/06/08 04:12:54;;;;;;;17.77;6.90;;;13.00;99.90;;;;;;5072083;28;20045;-55
2023/06/08 04:15:20;;;;;;;15.90;6.10;;;12.90;99.90;;;;;;5072271;28;20403;-57
2023/06/08 04:17:48;;;;;;;24.40;7.38;;;12.90;99.90;;;;;;5070545;28;20040;-56
2023/06/08 04:20:13;;;;;;;14.48;5.97;;;12.90;99.90;;;;;;5072113;28;20036;-56
2023/06/08 04:22:39;;;;;;;13.63;5.78;;;12.90;99.90;;;;;;5071704;28;20157;-57
2023/06/08 04:25:05;;;;;;;17.63;5.60;;;12.90;99.90;;;;;;5071761;28;20094;-56
2023/06/08 04:27:31;;;;;;;11.88;4.93;;;12.90;99.90;;;;;;5104513;28;20131;-56
2023/06/08 04:29:57;;;;;;;15.80;6.25;;;13.00;99.90;;;;;;5071689;28;20036;-57
2023/06/08 04:32:23;;;;;;;14.82;5.50;;;13.00;99.90;;;;;;5071603;28;20036;-56
2023/06/08 04:34:49;;;;;;;14.55;5.15;;;13.00;99.90;;;;;;5071990;28;20036;-56
2023/06/08 04:37:15;;;;;;;18.00;5.50;;;13.10;99.90;;;;;;5071916;28;20390;-56
2023/06/08 04:39:41;;;;;;;14.70;5.82;;;13.20;99.90;;;;;;5070426;28;20045;-56
2023/06/08 04:42:08;;;;;;;13.63;5.70;;;13.20;99.90;;;;;;5071622;28;20040;-56
2023/06/08 04:44:34;;;;;;;17.08;6.40;;;13.10;99.90;;;;;;5071835;28;20040;-56
2023/06/08 04:47:02;;;;;;;12.88;5.60;;;13.20;99.90;;;;;;5071554;28;20033;-56
2023/06/08 04:49:31;;;;;;;14.13;6.03;;;13.20;99.90;;;;;;5070726;28;20036;-57
2023/06/08 04:52:00;;;;;;;16.25;5.43;;;13.20;99.90;;;;;;5076019;28;21214;-57
2023/06/08 04:54:27;;;;;;;17.88;6.03;;;13.30;99.90;;;;;;5095201;28;20071;-57
2023/06/08 04:56:53;;;;;;;13.15;5.85;;;13.30;99.90;;;;;;5096124;28;20401;-57
2023/06/08 04:59:19;;;;;;;16.65;5.53;;;13.20;99.90;;;;;;5096594;28;20455;-57
2023/06/08 05:01:45;;;;;;;15.05;5.43;;;13.20;99.90;;;;;;5096534;28;20039;-57
2023/06/08 05:04:11;;;;;;;20.63;6.13;;;13.30;99.90;;;;;;5096670;28;20040;-58
2023/06/08 05:06:37;;;;;;;17.42;5.60;;;13.30;99.90;;;;;;5096415;28;20477;-57
2023/06/08 05:09:03;;;;;;;22.38;6.35;;;13.30;99.90;;;;;;5096133;28;20082;-56
2023/06/08 05:11:28;;;;;;;21.05;6.53;;;13.50;99.90;;;;;;5094885;28;20051;-57
2023/06/08 05:13:54;;;;;;;17.58;5.63;;;13.40;99.90;;;;;;5095997;28;20048;-55
2023/06/08 05:16:20;;;;;;;13.85;5.60;;;13.50;99.90;;;;;;5095260;28;20039;-56
2023/06/08 05:18:46;;;;;;;17.23;6.18;;;13.60;99.90;;;;;;5095201;28;20093;-56
2023/06/08 05:21:11;;;;;;;18.40;5.93;;;13.60;99.90;;;;;;5095270;28;20047;-56
2023/06/08 05:23:38;;;;;;;17.17;6.00;;;13.50;99.90;;;;;;5095528;28;20032;-56
2023/06/08 05:26:04;;;;;;;17.05;6.68;;;13.60;99.90;;;;;;5095309;28;20047;-55
2023/06/08 05:28:29;;;;;;;15.13;6.00;;;13.50;99.90;;;;;;5095458;28;20406;-56
2023/06/08 05:30:55;;;;;;;16.60;5.82;;;13.60;99.90;;;;;;5095088;28;20040;-56
2023/06/08 05:33:20;;;;;;;16.52;6.80;;;13.60;99.90;;;;;;5127811;27;20036;-56
2023/06/08 05:35:46;;;;;;;17.63;6.43;;;13.60;99.90;;;;;;5095008;28;20043;-56
2023/06/08 05:38:12;;;;;;;16.08;5.75;;;13.70;99.90;;;;;;5095048;28;20047;-56
2023/06/08 05:40:39;;;;;;;17.30;6.47;;;13.80;99.90;;;;;;5094956;28;20130;-57
2023/06/08 05:43:05;;;;;;;14.52;5.93;;;14.00;99.90;;;;;;5094886;28;20047;-56
2023/06/08 05:45:30;;;;;;;16.50;5.72;;;13.90;99.90;;;;;;5078031;28;20453;-55
2023/06/08 05:47:56;;;;;;;14.75;4.90;;;14.00;99.90;;;;;;5074865;28;20055;-56
2023/06/08 05:50:22;;;;;;;11.48;5.13;;;14.20;99.90;;;;;;5074363;28;20040;-57
2023/06/08 05:52:47;;;;;;;22.92;6.10;;;14.20;99.90;;;;;;5074809;28;20036;-56
2023/06/08 05:55:13;;;;;;;18.02;5.50;;;14.30;99.90;;;;;;5074714;28;20040;-56
2023/06/08 05:57:40;;;;;;;15.95;5.97;;;14.30;99.90;;;;;;5074181;28;20495;-56
2023/06/08 06:00:09;;;;;;;16.60;5.82;;;14.40;99.90;;;;;;5074316;28;20482;-57
2023/06/08 06:02:35;;;;;;;15.75;5.53;;;14.50;99.90;;;;;;5074509;28;20032;-57
2023/06/08 06:05:01;;;;;;;16.48;6.05;;;14.50;99.90;;;;;;5073819;28;20445;-56
2023/06/08 06:07:26;;;;;;;14.77;5.63;;;14.50;99.90;;;;;;5074452;28;20039;-55
2023/06/08 06:09:52;;;;;;;17.08;5.65;;;14.60;99.90;;;;;;5074408;28;20094;-56
2023/06/08 06:12:18;;;;;;;14.70;5.32;;;14.70;99.90;;;;;;5074375;28;20033;-56
2023/06/08 06:14:43;;;;;;;16.73;5.45;;;14.70;99.90;;;;;;5092342;28;20077;-56
2023/06/08 06:17:09;;;;;;;12.10;4.75;;;14.70;99.90;;;;;;5093193;28;20394;-56
2023/06/08 06:19:38;;;;;;;11.63;4.72;;;14.90;99.90;;;;;;5094298;28;20044;-57
2023/06/08 06:22:11;;;;;;;13.73;5.45;;;15.00;99.90;;;;;;5092880;28;20054;-56
2023/06/08 06:24:37;;;;;;;14.70;5.70;;;14.90;99.90;;;;;;5094261;28;20032;-57
2023/06/08 06:27:03;;;;;;;19.20;5.03;;;15.00;99.90;;;;;;5094676;28;20036;-57
2023/06/08 06:29:29;;;;;;;13.55;5.38;;;15.20;99.90;;;;;;5094064;28;20047;-56
2023/06/08 06:31:55;;;;;;;14.40;5.07;;;15.50;99.90;;;;;;5094222;28;20099;-58
2023/06/08 06:34:21;;;;;;;14.85;5.32;;;15.40;99.90;;;;;;5093679;28;20043;-56
2023/06/08 06:36:47;;;;;;;12.60;5.65;;;15.60;99.90;;;;;;5094340;28;20039;-57
2023/06/08 06:39:13;;;;;;;15.60;4.88;;;15.70;99.90;;;;;;5093779;28;20036;-56
2023/06/08 06:41:39;;;;;;;13.38;4.90;;;15.90;99.90;;;;;;5093952;28;20040;-56
2023/06/08 06:44:05;;;;;;;12.32;5.70;;;16.10;99.90;;;;;;5088928;28;20032;-56
2023/06/08 06:46:31;;;;;;;12.88;5.75;;;16.30;99.90;;;;;;5105844;28;20053;-56
2023/06/08 06:48:58;;;;;;;13.07;4.75;;;16.50;99.90;;;;;;5073331;28;20107;-57
2023/06/08 06:51:24;;;;;;;14.25;4.90;;;16.70;99.90;;;;;;5073457;28;20047;-56
2023/06/08 06:53:49;;;;;;;18.50;5.55;;;16.70;99.90;;;;;;5073511;28;20041;-56
2023/06/08 06:56:15;;;;;;;10.32;4.32;;;16.70;99.90;;;;;;5073167;28;20052;-56
2023/06/08 06:58:44;;;;;;;17.17;5.05;;;16.90;99.90;;;;;;5073392;28;20059;-56
2023/06/08 07:01:15;;;;;;;13.40;4.35;;;16.90;99.90;;;;;;5073208;28;20360;-56
2023/06/08 07:03:43;;;;;;;12.07;4.40;;;17.10;99.90;;;;;;5105917;28;20048;-57
2023/06/08 07:06:12;;;;;;;11.70;4.88;;;17.30;99.90;;;;;;5073095;28;20039;-56
2023/06/08 07:08:38;;;;;;;14.00;4.95;;;17.40;99.90;;;;;;5073291;28;20040;-57
2023/06/08 07:11:04;;;;;;;14.80;4.90;;;17.40;99.90;;;;;;5073628;28;20372;-58
2023/06/08 07:13:30;;;;;;;13.70;4.35;;;17.70;99.90;;;;;;5073445;28;20036;-57
2023/06/08 07:15:57;;;;;;;11.02;3.92;;;17.90;99.90;;;;;;5071303;28;20036;-57
2023/06/08 07:18:23;;;;;;;12.45;4.57;;;18.10;99.90;;;;;;5073505;28;20149;-56
2023/06/08 07:20:50;;;;;;;16.25;4.80;;;18.30;99.90;;;;;;5073853;28;20036;-58
2023/06/08 07:23:15;;;;;;;15.52;4.13;;;18.20;99.90;;;;;;5073361;28;20108;-58
2023/06/08 07:25:41;;;;;;;11.75;4.55;;;18.30;99.90;;;;;;5073160;28;20115;-58
2023/06/08 07:28:08;;;;;;;18.45;4.15;;;18.30;99.90;;;;;;5072853;28;20043;-57
2023/06/08 07:30:34;;;;;;;15.75;4.43;;;18.20;99.90;;;;;;5073479;28;20052;-57
2023/06/08 07:33:01;;;;;;;12.25;3.85;;;18.40;99.90;;;;;;5073081;28;20068;-57
2023/06/08 07:35:26;;;;;;;10.93;3.88;;;18.50;99.90;;;;;;5073370;28;20032;-56
2023/06/08 07:37:53;;;;;;;11.23;4.20;;;18.80;99.90;;;;;;5071798;28;20511;-57
2023/06/08 07:40:19;;;;;;;12.57;4.30;;;18.50;99.90;;;;;;5105643;28;20059;-57
2023/06/08 07:42:45;;;;;;;12.32;5.00;;;18.40;99.90;;;;;;5072994;28;20095;-56
2023/06/08 07:45:12;;;;;;;11.25;4.40;;;18.70;99.90;;;;;;5073552;28;20055;-56
2023/06/08 07:47:38;;;;;;;13.38;3.90;;;18.60;99.90;;;;;;5072979;28;20040;-57
2023/06/08 07:50:08;;;;;;;15.90;4.93;;;18.80;99.90;;;;;;5105712;28;20616;-56
2023/06/08 07:52:35;;;;;;;12.57;4.20;;;18.90;99.90;;;;;;5072767;28;20471;-58
2023/06/08 07:55:01;;;;;;;9.75;4.05;;;19.20;99.90;;;;;;5084884;28;20081;-57
2023/06/08 07:57:26;;;;;;;14.70;4.82;;;19.50;99.90;;;;;;5091483;28;20488;-57
2023/06/08 07:59:52;;;;;;;10.35;3.17;;;19.90;99.90;;;;;;5093317;28;20059;-57
2023/06/08 08:02:18;;;;;;;12.80;4.43;;;20.20;99.90;;;;;;5093079;28;20039;-56
2023/06/08 08:04:45;;;;;;;13.32;4.47;;;20.50;99.90;;;;;;5092902;28;20036;-57
2023/06/08 08:07:11;;;;;;;11.73;4.32;;;20.30;99.90;;;;;;5093095;28;20549;-56
2023/06/08 08:09:36;;;;;;;13.07;4.90;;;20.20;99.90;;;;;;5092541;28;20128;-56
2023/06/08 08:12:02;;;;;;;10.35;4.10;;;20.50;99.90;;;;;;5092950;28;20055;-57
2023/06/08 08:14:28;;;;;;;10.77;4.20;;;20.40;99.90;;;;;;5092755;28;20111;-57
2023/06/08 08:16:53;;;;;;;13.18;4.40;;;20.40;99.90;;;;;;5091804;28;20098;-57
2023/06/08 08:19:19;;;;;;;9.70;4.30;;;20.50;99.90;;;;;;5091256;28;20120;-56
2023/06/08 08:21:45;;;;;;;9.15;4.38;;;20.70;99.90;;;;;;5092756;28;20489;-57
2023/06/08 08:24:11;;;;;;;10.23;4.30;;;20.90;99.90;;;;;;5092437;28;20486;-56
2023/06/08 08:26:43;;;;;;;15.90;4.40;;;21.00;99.90;;;;;;5092615;28;20032;-56
2023/06/08 08:29:09;;;;;;;11.77;4.05;;;21.30;99.90;;;;;;5091020;28;20032;-57
2023/06/08 08:31:35;;;;;;;10.43;4.15;;;21.50;99.90;;;;;;5092512;28;20036;-57
2023/06/08 08:34:01;;;;;;;13.18;4.35;;;21.40;99.90;;;;;;5092401;28;20051;-57
2023/06/08 08:36:27;;;;;;;11.20;3.58;;;21.60;99.90;;;;;;5120697;28;20083;-58
2023/06/08 08:38:53;;;;;;;17.10;5.30;;;22.10;99.90;;;;;;5124741;28;20075;-57
2023/06/08 08:41:21;;;;;;;11.43;4.32;;;22.00;99.90;;;;;;5092197;28;20551;-57
2023/06/08 08:44:08;;;;;;;11.65;3.90;;;21.90;99.90;;;;;;5089746;28;20036;-56
2023/06/08 08:46:37;;;;;;;14.95;5.07;;;22.00;99.90;;;;;;5072269;28;20047;-57
2023/06/08 08:49:08;;;;;;;12.43;4.13;;;22.10;99.90;;;;;;5071954;28;20119;-57
2023/06/08 08:51:38;;;;;;;9.15;4.15;;;22.10;99.90;;;;;;5072023;28;20033;-56
2023/06/08 08:54:05;;;;;;;11.65;3.97;;;22.40;99.90;;;;;;5104785;28;20495;-57
2023/06/08 08:56:37;;;;;;;12.73;4.00;;;22.60;99.90;;;;;;5071676;28;20491;-56
2023/06/08 08:59:04;;;;;;;10.93;3.58;;;22.70;99.90;;;;;;5071679;28;20084;-57
2023/06/08 09:01:32;;;;;;;8.27;3.47;;;22.50;99.90;;;;;;5071201;28;20041;-57
2023/06/08 09:04:01;;;;;;;14.33;4.60;;;22.70;99.90;;;;;;5070405;28;20053;-58
2023/06/08 09:06:28;;;;;;;9.38;3.83;;;22.90;99.90;;;;;;5072355;28;20350;-58
2023/06/08 09:08:54;;;;;;;11.70;3.92;;;23.00;99.90;;;;;;5071888;28;20036;-58
2023/06/08 10:28:14;;;;;;;9.57;3.70;;;24.10;99.90;;;;;;5089345;27;20389;-56
2023/06/08 10:30:41;;;;;;;9.98;3.63;;;24.40;99.90;;;;;;5089135;28;20383;-57
2023/06/08 10:33:08;;;;;;;8.50;3.30;;;24.60;99.90;;;;;;5088980;28;20448;-57
2023/06/08 10:35:34;;;;;;;8.75;3.15;;;24.40;99.90;;;;;;5088515;28;20028;-59
2023/06/08 10:38:14;;;;;;;9.60;3.78;;;24.50;99.90;;;;;;5089148;28;20039;-59
2023/06/08 10:40:49;;;;;;;8.57;3.20;;;24.40;99.90;;;;;;5046340;28;20044;-59
2023/06/08 10:43:15;;;;;;;12.93;3.70;;;24.40;99.90;;;;;;5089096;28;20366;-59
2023/06/08 10:45:45;;;;;;;8.98;3.42;;;24.20;99.90;;;;;;5088840;28;20488;-59
2023/06/08 10:48:15;;;;;;;13.57;3.75;;;24.30;99.90;;;;;;5088822;28;20095;-60
2023/06/08 10:50:45;;;;;;;8.18;3.13;;;24.40;99.90;;;;;;5088473;28;20115;-57
2023/06/08 10:53:11;;;;;;;12.02;3.50;;;24.40;99.90;;;;;;5088665;28;20367;-57
2023/06/08 10:55:37;;;;;;;11.82;3.90;;;24.00;99.90;;;;;;5088455;28;20071;-58
2023/06/08 10:58:21;;;;;;;9.18;3.22;;;23.80;99.90;;;;;;5070317;28;20033;-57
2023/06/08 11:00:52;;;;;;;10.77;3.63;;;24.10;99.90;;;;;;5088567;28;20134;-57
2023/06/08 11:03:21;;;;;;;7.50;3.15;;;23.80;99.90;;;;;;5070369;28;20106;-57
2023/06/08 11:05:53;;;;;;;5.43;2.83;;;24.10;99.90;;;;;;5088873;28;20123;-57
2023/06/08 11:08:19;;;;;;;11.52;3.47;;;24.30;99.90;;;;;;5088459;28;20042;-59
2023/06/08 11:10:52;;;;;;;9.57;3.60;;;24.50;99.90;;;;;;5088281;28;20076;-59
2023/06/08 11:13:18;;;;;;;8.60;3.42;;;24.30;99.90;;;;;;5086481;28;20428;-59
2023/06/08 11:15:46;;;;;;;6.15;2.95;;;24.30;99.90;;;;;;5088308;28;20111;-59
2023/06/08 11:18:12;;;;;;;;;;;24.50;99.90;;;;;;5088743;28;20448;-59
2023/06/08 11:20:40;;;;;;;7.18;3.28;;;24.70;99.90;;;;;;5088344;28;19920;-59
2023/06/08 11:23:10;;;;;;;11.30;3.90;;;24.80;99.90;;;;;;5104012;28;20076;-59
2023/06/08 11:25:37;;;;;;;6.88;3.65;;;24.40;99.90;;;;;;5087991;28;20029;-59
2023/06/08 11:28:03;;;;;;;14.82;4.07;;;24.30;99.90;;;;;;5062362;28;20049;-59
2023/06/08 11:30:34;;;;;;;7.22;3.20;;;24.20;99.90;;;;;;5074428;28;20121;-59
2023/06/08 11:33:03;;;;;;;6.28;2.63;;;24.60;99.90;;;;;;5056248;28;20557;-59
2023/06/08 11:35:28;;;;;;;9.88;3.88;;;24.80;99.90;;;;;;5074646;28;20067;-59
2023/06/08 11:37:59;;;;;;;10.43;4.25;;;24.40;99.90;;;;;;5074571;28;20037;-59
2023/06/08 11:40:25;;;;;;;9.35;3.80;;;24.60;99.90;;;;;;5074247;28;20497;-59
2023/06/08 11:42:51;;;;;;;9.15;3.67;;;24.90;99.90;;;;;;5056722;28;20081;-59
2023/06/08 11:45:18;;;;;;;9.10;3.90;;;24.70;99.90;;;;;;5074225;28;20510;-59
2023/06/08 11:47:45;;;;;;;6.65;3.10;;;24.70;99.90;;;;;;5074225;28;20044;-57
2023/06/08 11:50:14;;;;;;;7.63;3.08;;;24.60;99.90;;;;;;5056177;28;20140;-60
2023/06/08 11:52:42;;;;;;;12.80;4.28;;;24.60;99.90;;;;;;5074154;28;20044;-59
2023/06/08 11:55:12;;;;;;;7.80;3.05;;;24.30;99.90;;;;;;5073989;28;20107;-59
2023/06/08 11:57:44;;;;;;;7.22;3.30;;;24.60;99.90;;;;;;5056001;28;20568;-59
2023/06/08 12:00:18;;;;;;;9.95;3.30;;;24.80;99.90;;;;;;5073915;28;20501;-59
2023/06/08 12:02:46;;;;;;;8.80;3.35;;;24.70;99.90;;;;;;5074300;28;20495;-59
2023/06/08 12:05:16;;;;;;;;;;;24.70;99.90;;;;;;5056450;28;20089;-59
2023/06/08 12:07:58;;;;;;;10.80;3.47;;;24.70;99.90;;;;;;5073596;28;19923;-59
2023/06/08 12:10:30;;;;;;;9.45;2.88;;;24.60;99.90;;;;;;5073945;28;20045;-59
2023/06/08 12:12:56;;;;;;;6.10;2.80;;;24.70;99.90;;;;;;5073923;28;20052;-59
2023/06/08 12:15:22;;;;;;;11.20;3.67;;;24.60;99.90;;;;;;5073815;28;20037;-59
2023/06/08 12:17:48;;;;;;;12.48;4.20;;;24.70;99.90;;;;;;5056190;28;20087;-59
2023/06/08 12:20:15;;;;;;;11.88;4.13;;;24.60;99.90;;;;;;5073542;28;20070;-59
2023/06/08 12:22:41;;;;;;;11.48;3.25;;;24.50;99.90;;;;;;5073624;28;20037;-59
2023/06/08 12:25:07;;;;;;;8.45;3.47;;;24.60;99.90;;;;;;5073010;28;20032;-59
2023/06/08 12:27:37;;;;;;;10.07;3.20;;;24.60;99.90;;;;;;5073240;28;20108;-59
2023/06/08 12:30:04;;;;;;;8.35;2.95;;;24.40;99.90;;;;;;5056347;28;20044;-59
2023/06/08 12:32:32;;;;;;;13.43;3.53;;;24.70;99.90;;;;;;5073218;28;20394;-59
2023/06/08 12:34:59;;;;;;;8.65;3.42;;;24.60;99.90;;;;;;5073052;28;20060;-59
2023/06/08 12:37:25;;;;;;;6.30;2.50;;;24.60;99.90;;;;;;5073083;28;20485;-59
2023/06/08 12:39:52;;;;;;;11.35;3.75;;;24.60;99.90;;;;;;5071926;28;20029;-61
2023/06/08 12:42:18;;;;;;;8.57;3.33;;;24.40;99.90;;;;;;5073572;28;20399;-59
2023/06/08 12:44:44;;;;;;;9.48;2.75;;;23.90;99.90;;;;;;5073002;28;20043;-59
2023/06/08 12:47:10;;;;;;;5.97;3.05;;;24.00;99.90;;;;;;5068036;28;20040;-59
2023/06/08 12:49:36;;;;;;;11.43;3.28;;;24.20;99.90;;;;;;5073029;28;20551;-60
2023/06/08 12:52:02;;;;;;;8.68;3.03;;;24.20;99.90;;;;;;5073025;28;20075;-59
2023/06/08 12:54:28;;;;;;;9.90;3.55;;;24.10;99.90;;;;;;5072929;28;20068;-59
2023/06/08 12:56:53;;;;;;;10.32;3.00;;;24.20;99.90;;;;;;5042151;28;20040;-59
2023/06/08 12:59:20;;;;;;;6.55;2.63;;;24.00;99.90;;;;;;5073009;28;20111;-59
2023/06/08 13:01:46;;;;;;;8.35;3.45;;;24.20;99.90;;;;;;5051666;28;20041;-59
2023/06/08 13:04:12;;;;;;;9.15;3.13;;;24.30;99.90;;;;;;5072677;28;20090;-59
2023/06/08 13:06:39;;;;;;;7.75;2.58;;;24.10;99.90;;;;;;5072684;28;20036;-59
2023/06/08 13:09:05;;;;;;;8.60;3.28;;;24.20;99.90;;;;;;5072900;28;20037;-59
2023/06/08 13:11:30;;;;;;;6.80;3.03;;;23.60;99.90;;;;;;5072823;28;20051;-59
2023/06/08 13:13:56;;;;;;;8.70;3.05;;;23.80;99.90;;;;;;5072850;28;20425;-59
2023/06/08 13:16:21;;;;;;;10.90;3.28;;;23.70;99.90;;;;;;5072508;28;20045;-59
2023/06/08 13:18:47;;;;;;;6.63;3.05;;;23.70;99.90;;;;;;5072604;28;20573;-59
2023/06/08 13:21:13;;;;;;;6.43;2.60;;;24.00;99.90;;;;;;5072504;28;20389;-59
2023/06/08 13:23:39;;;;;;;6.13;2.50;;;23.90;99.90;;;;;;5065187;28;20475;-59
2023/06/08 13:26:05;;;;;;;6.53;2.70;;;24.10;99.90;;;;;;5068450;28;20048;-59
2023/06/08 13:28:32;;;;;;;6.85;2.78;;;23.90;99.90;;;;;;5064272;28;20457;-59
2023/06/08 13:30:58;;;;;;;7.88;2.75;;;23.70;99.90;;;;;;5066461;28;20044;-59
2023/06/08 13:33:24;;;;;;;7.65;2.90;;;23.70;99.90;;;;;;5072484;28;20059;-59
2023/06/08 13:35:49;;;;;;;7.53;3.22;;;23.40;99.90;;;;;;5072233;28;20039;-59
2023/06/08 13:38:15;;;;;;;10.23;2.80;;;23.40;99.90;;;;;;5072050;28;20032;-59
2023/06/08 13:40:42;;;;;;;5.70;2.55;;;23.50;99.90;;;;;;5072265;28;20055;-59
2023/06/08 13:43:09;;;;;;;7.20;2.60;;;23.40;99.90;;;;;;5067130;28;20086;-59
2023/06/08 13:45:36;;;;;;;8.00;2.38;;;23.60;99.90;;;;;;5072235;28;20032;-59
2023/06/08 13:48:02;;;;;;;10.75;3.10;;;23.60;99.90;;;;;;5071955;28;20074;-59
2023/06/08 13:50:29;;;;;;;5.63;2.72;;;23.60;99.90;;;;;;5072107;28;20032;-58
2023/06/08 13:52:57;;;;;;;5.10;2.38;;;23.60;99.90;;;;;;5072198;28;20044;-59
2023/06/08 13:55:28;;;;;;;6.83;2.80;;;23.70;99.90;;;;;;5071851;28;20107;-59
2023/06/08 13:57:54;;;;;;;5.07;1.98;;;23.60;99.90;;;;;;5072092;28;20350;-59